Time;durP1;ratioP1;P1;durP2;ratioP2;P2;SDS_P1;SDS_P2;PMS_P1;PMS_P2;Temp;Humidity;BMP_temperature;BMP_pressure;BME280_temperature;BME280_humidity;BME280_pressure;Samples;Min_cycle;Max_cycle;Signal;HPM_P1;HPM_P2
2023/01/05 00:01:01;;;;;;;19.17;4.50;;;;;;;10.74;100.00;99919.19;5073316;28;20528;-58
2023/01/05 00:03:28;;;;;;;19.40;5.20;;;;;;;10.89;100.00;99924.88;5060840;28;20492;-59
2023/01/05 00:05:59;;;;;;;29.30;5.17;;;;;;;10.86;100.00;99928.69;5064460;28;20496;-58
2023/01/05 00:08:26;;;;;;;18.73;3.70;;;;;;;10.75;100.00;99934.25;5061250;28;20453;-59
2023/01/05 00:24:38;;;;;;;15.57;3.60;;;;;;;10.93;100.00;99916.38;5061138;28;20448;-59
2023/01/05 00:27:06;;;;;;;23.27;4.80;;;;;;;10.88;100.00;99918.72;5062434;28;20526;-59
2023/01/05 00:29:33;;;;;;;16.10;4.03;;;;;;;10.84;100.00;99927.16;5068098;28;20449;-60
2023/01/05 00:31:59;;;;;;;14.13;4.60;;;;;;;10.81;100.00;99933.66;5061674;28;20511;-59
2023/01/05 00:34:26;;;;;;;22.70;4.70;;;;;;;10.70;100.00;99942.72;5061101;28;20489;-60
2023/01/05 00:36:53;;;;;;;16.73;5.20;;;;;;;10.70;100.00;99929.34;5060146;28;20465;-59
2023/01/05 00:39:19;;;;;;;12.70;3.93;;;;;;;10.57;100.00;99934.19;5071284;28;20449;-59
2023/01/05 00:41:46;;;;;;;13.10;3.50;;;;;;;10.63;100.00;99946.16;5079167;28;20520;-59
2023/01/05 00:44:14;;;;;;;17.43;4.03;;;;;;;10.58;100.00;99943.06;5080745;28;20444;-59
2023/01/05 00:46:41;;;;;;;14.60;3.93;;;;;;;10.45;100.00;99949.59;5079799;28;20985;-59
2023/01/05 00:49:08;;;;;;;15.20;3.03;;;;;;;10.42;100.00;99938.38;5082111;28;20896;-60
2023/01/05 00:51:35;;;;;;;11.33;3.60;;;;;;;10.28;100.00;99945.00;5086454;28;20468;-59
2023/01/05 00:54:02;;;;;;;10.87;2.77;;;;;;;10.16;100.00;99949.69;5081168;28;20459;-58
2023/01/05 00:56:28;;;;;;;12.07;3.13;;;;;;;10.25;100.00;99950.63;5078550;28;20500;-58
2023/01/05 00:58:55;;;;;;;12.80;3.50;;;;;;;10.35;100.00;99956.81;5080462;28;20479;-58
2023/01/05 01:01:23;;;;;;;11.03;2.43;;;;;;;10.13;100.00;99947.28;5081864;28;20479;-58
2023/01/05 01:03:50;;;;;;;8.43;2.07;;;;;;;10.07;100.00;99953.19;5084809;28;20476;-58
2023/01/05 01:06:17;;;;;;;12.37;2.67;;;;;;;9.97;100.00;99947.91;5083606;28;20993;-58
2023/01/05 01:08:44;;;;;;;10.33;2.60;;;;;;;10.00;100.00;99966.31;5083975;28;21022;-58
2023/01/05 01:11:11;;;;;;;12.73;3.10;;;;;;;9.95;100.00;99957.88;5083219;28;20521;-58
2023/01/05 01:13:38;;;;;;;13.30;2.53;;;;;;;9.96;100.00;99960.41;5084592;28;20444;-58
2023/01/05 01:16:07;;;;;;;8.13;3.17;;;;;;;9.89;100.00;99947.75;5083647;28;20482;-58
2023/01/05 01:18:35;;;;;;;10.87;3.43;;;;;;;10.03;100.00;99975.84;5084313;28;20505;-58
2023/01/05 01:21:02;;;;;;;12.63;3.37;;;;;;;9.94;100.00;99973.03;5082641;28;20468;-58
2023/01/05 01:23:29;;;;;;;16.83;3.50;;;;;;;10.11;100.00;99979.50;5076797;28;20493;-58
2023/01/05 01:25:56;;;;;;;15.60;3.53;;;;;;;10.02;100.00;99977.69;5078627;28;20498;-58
2023/01/05 01:28:23;;;;;;;13.30;3.63;;;;;;;9.99;100.00;99981.47;5084163;28;20523;-58
2023/01/05 01:30:50;;;;;;;17.30;3.40;;;;;;;10.04;100.00;99977.53;5083012;28;20837;-58
2023/01/05 01:33:16;;;;;;;17.57;3.87;;;;;;;10.13;100.00;99982.84;5083439;28;20448;-59
2023/01/05 01:35:45;;;;;;;16.17;3.67;;;;;;;10.22;100.00;99982.97;5083326;28;20467;-58
2023/01/05 01:38:12;;;;;;;16.57;4.20;;;;;;;10.27;100.00;99980.72;5083793;28;20494;-58
2023/01/05 01:40:39;;;;;;;19.00;3.77;;;;;;;10.38;100.00;99975.25;5082304;28;20499;-58
2023/01/05 01:43:12;;;;;;;13.63;4.07;;;;;;;10.35;100.00;99981.69;5083849;28;20492;-59
2023/01/05 01:45:39;;;;;;;15.83;3.53;;;;;;;10.32;100.00;99968.63;5083528;28;20479;-58
2023/01/05 01:48:06;;;;;;;21.50;5.13;;;;;;;10.33;100.00;99985.53;5084036;28;20498;-59
2023/01/05 01:50:35;;;;;;;27.83;5.40;;;;;;;10.32;100.00;99997.19;5082300;28;20467;-59
2023/01/05 01:53:05;;;;;;;22.87;5.27;;;;;;;10.39;100.00;100000.13;5083088;28;20558;-58
2023/01/05 01:55:33;;;;;;;17.60;3.63;;;;;;;10.21;100.00;99986.63;5082688;28;20499;-60
2023/01/05 01:58:00;;;;;;;16.50;4.43;;;;;;;10.35;100.00;99992.38;5083208;28;20480;-58
2023/01/05 02:00:27;;;;;;;20.70;5.63;;;;;;;10.43;100.00;99996.16;5082892;28;25145;-58
2023/01/05 02:02:55;;;;;;;25.90;3.80;;;;;;;10.42;100.00;100000.66;5083136;28;20484;-59
2023/01/05 02:05:24;;;;;;;23.23;4.80;;;;;;;10.31;100.00;99995.47;5083444;28;20491;-59
2023/01/05 02:07:51;;;;;;;15.00;3.87;;;;;;;10.43;100.00;100001.50;5082774;28;20510;-59
2023/01/05 02:10:27;;;;;;;20.63;4.73;;;;;;;10.41;100.00;99990.13;5082041;28;20444;-58
2023/01/05 02:13:04;;;;;;;19.43;3.93;;;;;;;10.48;100.00;100002.75;5082748;28;20474;-58
2023/01/05 02:15:37;;;;;;;20.90;4.03;;;;;;;10.18;100.00;99995.78;5082297;28;20525;-58
2023/01/05 02:18:13;;;;;;;19.43;4.80;;;;;;;10.45;100.00;100002.19;5082925;28;20456;-58
2023/01/05 02:20:56;;;;;;;25.23;5.37;;;;;;;10.38;100.00;99993.09;5081980;28;20488;-59
2023/01/05 02:23:36;;;;;;;25.57;6.67;;;;;;;10.43;100.00;99999.66;5082406;28;20518;-59
2023/01/05 02:26:24;;;;;;;16.43;5.57;;;;;;;10.43;100.00;99997.00;5081688;28;20487;-59
2023/01/05 02:29:18;;;;;;;13.73;4.10;;;;;;;10.24;100.00;99997.03;5069286;28;21059;-59
2023/01/05 02:31:52;;;;;;;18.50;5.57;;;;;;;10.48;100.00;99988.53;5029003;28;20504;-59
2023/01/05 02:34:23;;;;;;;21.70;3.93;;;;;;;10.43;100.00;100005.00;5081816;28;20976;-59
2023/01/05 02:36:53;;;;;;;25.80;5.10;;;;;;;10.33;100.00;99989.03;5081780;28;20523;-58
2023/01/05 02:39:24;;;;;;;19.87;5.47;;;;;;;10.28;100.00;99991.25;5082712;28;20524;-58
2023/01/05 02:41:56;;;;;;;21.00;5.27;;;;;;;10.36;100.00;99998.56;5056683;28;20501;-59
2023/01/05 02:44:23;;;;;;;24.43;4.33;;;;;;;10.32;100.00;99999.84;5069621;28;20453;-58
2023/01/05 02:47:05;;;;;;;22.93;5.17;;;;;;;10.23;100.00;99995.34;5061690;28;20465;-58
2023/01/05 02:49:34;;;;;;;14.93;5.23;;;;;;;10.07;100.00;99988.78;5072643;28;20472;-58
2023/01/05 02:52:01;;;;;;;15.53;3.80;;;;;;;10.07;100.00;99996.78;5065408;28;20469;-58
2023/01/05 02:54:31;;;;;;;26.30;4.70;;;;;;;10.12;100.00;99997.22;5058615;28;20452;-58
2023/01/05 02:57:01;;;;;;;22.10;4.77;;;;;;;10.16;100.00;99995.09;5061164;28;20473;-58
2023/01/05 02:59:30;;;;;;;22.57;5.73;;;;;;;10.13;100.00;99995.38;5071945;28;20533;-59
2023/01/05 03:02:01;;;;;;;23.67;4.73;;;;;;;10.12;100.00;99999.88;5065826;28;20465;-58
2023/01/05 03:04:32;;;;;;;23.97;4.67;;;;;;;10.06;100.00;100005.78;5067270;28;20505;-59
2023/01/05 03:07:01;;;;;;;24.70;4.60;;;;;;;10.07;100.00;100011.97;5061996;28;20484;-59
2023/01/05 03:09:28;;;;;;;17.20;5.00;;;;;;;10.11;100.00;100013.38;5070708;28;20450;-58
2023/01/05 03:14:45;;;;;;;18.00;3.90;;;;;;;9.93;100.00;100011.44;5047636;28;20452;-59
2023/01/05 03:17:17;;;;;;;15.83;4.00;;;;;;;9.79;100.00;100004.69;5062348;28;20487;-59
2023/01/05 03:19:46;;;;;;;14.47;4.40;;;;;;;9.86;100.00;100018.34;5061716;28;20518;-59
2023/01/05 03:36:12;;;;;;;24.50;5.37;;;;;;;9.80;100.00;100030.41;5067985;28;20492;-58
2023/01/05 03:38:41;;;;;;;14.73;4.40;;;;;;;9.75;100.00;100043.31;5061583;28;20565;-59
2023/01/05 03:41:09;;;;;;;23.67;7.03;;;;;;;9.70;100.00;100050.91;5075504;28;20557;-58
2023/01/05 03:43:36;;;;;;;27.23;4.90;;;;;;;9.65;100.00;100053.16;5081755;28;20484;-58
2023/01/05 03:46:10;;;;;;;15.33;3.60;;;;;;;9.79;100.00;100044.75;5080654;28;20490;-59
2023/01/05 03:48:38;;;;;;;15.97;5.60;;;;;;;9.64;100.00;100048.81;5081423;28;20459;-59
2023/01/05 03:51:05;;;;;;;22.07;4.97;;;;;;;9.69;100.00;100048.41;5079742;28;20598;-58
2023/01/05 03:53:32;;;;;;;19.63;5.43;;;;;;;9.64;100.00;100056.81;5081134;28;20463;-59
2023/01/05 03:55:58;;;;;;;18.03;5.53;;;;;;;9.56;100.00;100065.50;5080014;28;20487;-58
2023/01/05 03:58:25;;;;;;;18.57;5.83;;;;;;;9.63;100.00;100060.47;5080753;28;20456;-58
2023/01/05 04:00:52;;;;;;;21.60;4.97;;;;;;;9.74;100.00;100052.34;5080659;28;20488;-58
2023/01/05 04:03:19;;;;;;;14.27;4.30;;;;;;;9.68;100.00;100060.06;5080901;28;20531;-58
2023/01/05 04:05:47;;;;;;;14.13;5.27;;;;;;;9.64;100.00;100072.00;5080863;28;20511;-58
2023/01/05 04:08:14;;;;;;;16.13;3.90;;;;;;;9.72;100.00;100062.31;5080429;28;20457;-58
2023/01/05 04:10:40;;;;;;;12.60;4.33;;;;;;;9.50;100.00;100054.56;5080081;28;20464;-58
2023/01/05 04:13:07;;;;;;;29.37;4.90;;;;;;;9.59;100.00;100061.75;5080404;28;20518;-58
2023/01/05 04:15:34;;;;;;;21.13;5.50;;;;;;;9.71;100.00;100065.97;5080772;28;20796;-58
2023/01/05 04:18:01;;;;;;;15.83;4.63;;;;;;;9.77;100.00;100073.41;5080576;28;20452;-59
2023/01/05 04:20:28;;;;;;;32.63;4.97;;;;;;;9.76;100.00;100073.56;5063255;28;20475;-58
2023/01/05 04:22:56;;;;;;;30.03;7.13;;;;;;;9.72;100.00;100067.66;5080602;28;20492;-58
2023/01/05 04:25:23;;;;;;;16.53;5.10;;;;;;;9.79;100.00;100079.47;5080167;28;20497;-59
2023/01/05 04:27:50;;;;;;;29.13;6.10;;;;;;;9.75;100.00;100078.03;5080135;28;20452;-59
2023/01/05 04:30:16;;;;;;;14.37;4.67;;;;;;;9.71;100.00;100089.16;5079716;28;20464;-59
2023/01/05 04:32:43;;;;;;;14.03;4.80;;;;;;;9.79;100.00;100083.94;5080037;28;20463;-59
2023/01/05 04:35:10;;;;;;;20.43;5.43;;;;;;;9.77;100.00;100093.91;5080506;28;20449;-59
2023/01/05 04:37:37;;;;;;;15.80;5.40;;;;;;;9.72;100.00;100083.69;5080282;28;20517;-59
2023/01/05 04:40:07;;;;;;;15.77;5.50;;;;;;;9.78;100.00;100090.28;5079795;28;20515;-58
2023/01/05 04:42:33;;;;;;;23.20;4.97;;;;;;;9.89;100.00;100098.13;5067542;28;20465;-58
2023/01/05 04:45:00;;;;;;;15.37;5.00;;;;;;;9.74;100.00;100089.72;5061193;28;20489;-59
2023/01/05 04:47:27;;;;;;;13.40;4.73;;;;;;;9.77;100.00;100086.78;5066226;28;20491;-59
2023/01/05 04:49:53;;;;;;;25.03;4.77;;;;;;;9.79;100.00;100098.16;5066879;28;20495;-59
2023/01/05 04:52:20;;;;;;;16.87;5.03;;;;;;;9.72;100.00;100102.38;5061046;28;20477;-59
2023/01/05 04:54:47;;;;;;;18.80;3.93;;;;;;;9.76;100.00;100103.75;5070565;28;20468;-59
2023/01/05 04:57:15;;;;;;;21.07;5.00;;;;;;;9.75;100.00;100104.72;5059886;28;20476;-59
2023/01/05 04:59:41;;;;;;;19.27;4.87;;;;;;;9.78;100.00;100099.13;5076419;28;20472;-59
2023/01/05 05:02:09;;;;;;;19.03;5.90;;;;;;;9.79;100.00;100102.63;5070845;28;20483;-59
2023/01/05 05:04:35;;;;;;;18.87;5.53;;;;;;;9.87;100.00;100108.13;5061124;28;20481;-60
2023/01/05 05:07:02;;;;;;;16.57;4.97;;;;;;;9.94;100.00;100090.53;5071421;28;20473;-59
2023/01/05 05:09:29;;;;;;;17.13;5.20;;;;;;;9.88;100.00;100101.81;5060162;28;20461;-59
2023/01/05 05:11:56;;;;;;;21.13;5.10;;;;;;;9.89;100.00;100107.97;5071271;28;20477;-59
2023/01/05 05:14:27;;;;;;;22.60;4.17;;;;;;;9.86;100.00;100113.59;5066749;28;20437;-59
2023/01/05 05:16:53;;;;;;;19.53;3.73;;;;;;;9.93;100.00;100109.38;5059642;28;20492;-59
2023/01/05 05:19:20;;;;;;;22.50;5.13;;;;;;;9.75;100.00;100111.91;5067829;28;20482;-59
2023/01/05 05:21:47;;;;;;;18.57;4.60;;;;;;;9.83;100.00;100106.72;5065349;28;20552;-59
2023/01/05 05:24:14;;;;;;;23.90;4.83;;;;;;;9.85;100.00;100114.59;5059137;28;20493;-59
2023/01/05 05:26:41;;;;;;;12.37;3.93;;;;;;;9.71;100.00;100108.66;5058843;28;20497;-59
2023/01/05 05:29:07;;;;;;;27.00;5.33;;;;;;;9.67;100.00;100107.28;5059839;28;20496;-59
2023/01/05 05:31:36;;;;;;;29.17;5.60;;;;;;;9.75;100.00;100111.91;5059404;28;20497;-59
2023/01/05 05:34:02;;;;;;;19.03;4.60;;;;;;;9.57;100.00;100119.75;5067653;28;20474;-59
2023/01/05 05:36:29;;;;;;;24.10;5.93;;;;;;;9.68;100.00;100116.13;5059933;28;20494;-59
2023/01/05 05:38:57;;;;;;;24.30;4.47;;;;;;;9.76;100.00;100111.78;5059989;28;20508;-59
2023/01/05 05:41:24;;;;;;;20.97;4.97;;;;;;;9.74;100.00;100127.09;5065428;28;21080;-59
2023/01/05 05:43:50;;;;;;;25.57;5.23;;;;;;;9.78;100.00;100127.66;5075040;28;20492;-59
2023/01/05 05:46:17;;;;;;;18.70;6.30;;;;;;;9.88;100.00;100128.50;5061686;28;20496;-59
2023/01/05 05:48:45;;;;;;;20.30;4.70;;;;;;;9.81;100.00;100122.03;5071750;28;20464;-59
2023/01/05 05:51:12;;;;;;;27.60;5.60;;;;;;;9.76;100.00;100135.78;5063851;28;20481;-59
2023/01/05 05:53:39;;;;;;;13.67;4.03;;;;;;;9.97;100.00;100142.84;5083513;28;20447;-59
2023/01/05 05:56:06;;;;;;;12.50;3.87;;;;;;;9.90;100.00;100142.56;5064986;28;20477;-59
2023/01/05 05:58:32;;;;;;;21.70;4.50;;;;;;;9.93;100.00;100144.97;5065111;28;21161;-59
2023/01/05 06:00:59;;;;;;;19.07;4.40;;;;;;;9.95;100.00;100145.66;5062588;28;20533;-59
2023/01/05 06:03:26;;;;;;;21.13;4.63;;;;;;;10.02;100.00;100156.63;5081758;28;21005;-59
2023/01/05 06:05:54;;;;;;;20.10;5.20;;;;;;;9.93;100.00;100162.78;5079848;28;20481;-59
2023/01/05 06:08:22;;;;;;;19.93;4.80;;;;;;;9.86;100.00;100165.19;5074698;28;20480;-59
2023/01/05 06:10:50;;;;;;;19.50;5.20;;;;;;;9.84;100.00;100168.97;5072998;28;20478;-59
2023/01/05 06:13:17;;;;;;;16.13;3.80;;;;;;;9.78;100.00;100163.19;5068737;28;20480;-59
2023/01/05 06:15:44;;;;;;;21.93;4.37;;;;;;;9.76;100.00;100161.66;5067659;28;20542;-60
2023/01/05 06:18:10;;;;;;;15.87;4.70;;;;;;;9.85;100.00;100179.50;5075331;28;20479;-59
2023/01/05 06:20:37;;;;;;;23.70;4.47;;;;;;;9.84;100.00;100182.31;5075157;28;20484;-59
2023/01/05 06:23:05;;;;;;;23.83;5.17;;;;;;;9.91;100.00;100173.63;5074717;28;20612;-59
2023/01/05 06:25:32;;;;;;;12.13;3.10;;;;;;;9.79;100.00;100194.28;5081475;28;20464;-59
2023/01/05 06:28:00;;;;;;;18.77;5.53;;;;;;;9.79;100.00;100188.94;5062603;28;20457;-59
2023/01/05 06:30:27;;;;;;;16.33;4.57;;;;;;;9.85;100.00;100192.88;5073694;28;20441;-60
2023/01/05 06:32:53;;;;;;;12.53;4.30;;;;;;;9.80;100.00;100192.44;5065336;28;20453;-60
2023/01/05 06:35:20;;;;;;;13.60;5.13;;;;;;;9.79;100.00;100193.41;5078618;28;20434;-59
2023/01/05 06:37:47;;;;;;;12.00;4.37;;;;;;;9.93;100.00;100201.03;5063692;28;20465;-59
2023/01/05 06:40:15;;;;;;;14.73;3.50;;;;;;;9.84;100.00;100203.69;5081142;28;20480;-60
2023/01/05 06:42:42;;;;;;;14.50;4.20;;;;;;;9.89;100.00;100204.13;5066796;28;20460;-59
2023/01/05 06:45:12;;;;;;;14.20;3.77;;;;;;;9.85;100.00;100208.88;5074115;28;20559;-59
2023/01/05 06:47:38;;;;;;;15.70;4.00;;;;;;;9.86;100.00;100209.72;5071491;28;20454;-59
2023/01/05 06:50:06;;;;;;;17.40;4.90;;;;;;;9.94;100.00;100223.25;5065656;28;20444;-59
2023/01/05 06:52:35;;;;;;;16.93;4.30;;;;;;;9.92;100.00;100210.03;5082240;28;20452;-59
2023/01/05 06:55:02;;;;;;;13.17;4.73;;;;;;;9.88;100.00;100221.13;5065184;28;21075;-60
2023/01/05 06:57:30;;;;;;;14.87;4.80;;;;;;;9.92;100.00;100227.88;5071126;28;20476;-60
2023/01/05 06:59:57;;;;;;;16.23;3.70;;;;;;;9.94;100.00;100231.25;5080855;28;20942;-60
2023/01/05 07:02:24;;;;;;;15.07;3.70;;;;;;;9.90;100.00;100229.84;5079064;28;20885;-59
2023/01/05 07:04:50;;;;;;;13.70;4.90;;;;;;;9.97;100.00;100236.34;5067305;28;20504;-72
2023/01/05 07:07:17;;;;;;;20.77;4.73;;;;;;;9.96;100.00;100248.84;5061043;28;20481;-72
2023/01/05 07:09:48;;;;;;;23.87;5.03;;;;;;;9.70;100.00;100244.94;5062500;28;20429;-72
2023/01/05 07:12:14;;;;;;;11.83;4.03;;;;;;;9.80;100.00;100254.69;5061037;28;20483;-72
2023/01/05 07:14:42;;;;;;;15.17;4.97;;;;;;;9.90;100.00;100254.72;5062564;28;20433;-72
2023/01/05 07:17:11;;;;;;;13.07;5.00;;;;;;;9.80;100.00;100248.50;5066689;28;20481;-73
2023/01/05 07:19:38;;;;;;;15.70;4.30;;;;;;;9.89;100.00;100252.19;5066423;28;20461;-72
2023/01/05 07:22:04;;;;;;;15.57;4.30;;;;;;;9.89;100.00;100260.19;5061105;28;20484;-72
2023/01/05 07:24:31;;;;;;;21.70;4.40;;;;;;;9.78;100.00;100261.16;5061820;28;20497;-71
2023/01/05 07:26:58;;;;;;;17.17;3.50;;;;;;;9.78;100.00;100261.16;5060773;28;20473;-72
2023/01/05 07:29:25;;;;;;;14.90;4.10;;;;;;;9.76;100.00;100277.31;5061715;28;20473;-72
2023/01/05 07:31:53;;;;;;;16.80;4.10;;;;;;;9.86;100.00;100274.69;5075794;28;20506;-72
2023/01/05 07:34:20;;;;;;;26.03;5.23;;;;;;;9.87;100.00;100278.19;5079770;28;20751;-72
2023/01/05 07:36:47;;;;;;;15.27;4.30;;;;;;;9.85;100.00;100280.16;5080811;28;20476;-72
2023/01/05 07:39:14;;;;;;;17.77;5.03;;;;;;;9.77;100.00;100286.16;5080741;28;20478;-72
2023/01/05 07:41:41;;;;;;;15.90;3.67;;;;;;;9.73;100.00;100282.06;5041021;28;20893;-72
2023/01/05 07:44:08;;;;;;;14.70;4.07;;;;;;;9.81;100.00;100287.59;5041240;28;20505;-72
2023/01/05 07:46:35;;;;;;;14.40;4.07;;;;;;;9.72;100.00;100291.91;5043190;28;20493;-72
2023/01/05 07:49:03;;;;;;;16.40;4.37;;;;;;;9.78;100.00;100286.03;5078754;28;20464;-72
2023/01/05 07:51:30;;;;;;;18.03;4.53;;;;;;;9.51;100.00;100307.09;5061813;28;20515;-72
2023/01/05 07:53:57;;;;;;;19.60;4.80;;;;;;;9.56;100.00;100305.72;5069253;28;20444;-72
2023/01/05 07:56:24;;;;;;;18.10;4.80;;;;;;;9.53;100.00;100311.34;5075928;28;21000;-72
2023/01/05 07:58:50;;;;;;;13.43;4.00;;;;;;;9.47;100.00;100311.84;5058874;28;20658;-72
2023/01/05 08:01:17;;;;;;;10.13;3.50;;;;;;;9.56;100.00;100310.22;5080858;28;20484;-72
2023/01/05 08:03:45;;;;;;;11.30;4.10;;;;;;;9.67;100.00;100318.16;5081018;28;20506;-72
2023/01/05 08:06:14;;;;;;;18.67;4.63;;;;;;;9.57;100.00;100325.28;5079877;28;20907;-71
2023/01/05 08:08:41;;;;;;;14.50;4.00;;;;;;;9.67;100.00;100325.31;5079867;28;20456;-71
2023/01/05 08:11:10;;;;;;;10.60;3.60;;;;;;;9.67;100.00;100331.50;5079348;28;20487;-58
2023/01/05 08:16:21;;;;;;;16.93;4.73;;;;;;;9.63;100.00;100332.72;5053041;28;20490;-58
2023/01/05 08:18:48;;;;;;;17.30;4.83;;;;;;;9.78;100.00;100335.91;5070465;28;20445;-59
2023/01/05 08:21:16;;;;;;;12.93;5.20;;;;;;;9.61;100.00;100340.03;5067908;28;20465;-59
2023/01/05 08:23:44;;;;;;;17.57;5.17;;;;;;;9.66;100.00;100348.50;5079640;28;20474;-58
2023/01/05 08:26:12;;;;;;;14.83;4.57;;;;;;;9.73;100.00;100340.81;5072118;28;20565;-65
2023/01/05 08:28:40;;;;;;;20.00;5.70;;;;;;;9.66;100.00;100348.50;5067322;28;20940;-58
2023/01/05 08:31:09;;;;;;;20.40;4.87;;;;;;;9.65;100.00;100353.97;5079410;28;20479;-58
2023/01/05 08:33:36;;;;;;;20.23;6.10;;;;;;;9.57;100.00;100350.13;5068593;28;20453;-58
2023/01/05 08:36:08;;;;;;;20.70;5.53;;;;;;;9.73;100.00;100365.66;5079848;28;20476;-58
2023/01/05 08:38:36;;;;;;;27.07;5.07;;;;;;;9.64;100.00;100355.78;5070301;28;20514;-58
2023/01/05 08:41:02;;;;;;;18.80;5.03;;;;;;;9.75;100.00;100368.22;5072114;28;20488;-58
2023/01/05 08:43:29;;;;;;;15.70;5.40;;;;;;;9.68;100.00;100370.56;5079405;28;20475;-58
2023/01/05 08:45:56;;;;;;;20.97;5.20;;;;;;;9.80;100.00;100372.16;5077560;28;20480;-58
2023/01/05 08:48:23;;;;;;;14.63;6.00;;;;;;;9.93;100.00;100377.31;5077175;28;20498;-58
2023/01/05 08:50:49;;;;;;;14.73;5.00;;;;;;;9.92;100.00;100374.75;5076211;28;20469;-58
2023/01/05 08:53:16;;;;;;;21.10;5.47;;;;;;;9.96;100.00;100381.53;5077201;28;20559;-58
2023/01/05 08:55:45;;;;;;;13.13;5.40;;;;;;;10.16;100.00;100379.78;5075360;28;20472;-58
2023/01/05 08:58:11;;;;;;;29.40;6.57;;;;;;;10.27;100.00;100384.19;5076559;28;20772;-58
2023/01/05 09:00:38;;;;;;;18.10;6.43;;;;;;;10.39;100.00;100387.63;5076587;28;20468;-58
2023/01/05 09:03:05;;;;;;;15.37;4.97;;;;;;;10.30;100.00;100391.94;5077030;28;20468;-58
2023/01/05 09:05:32;;;;;;;11.53;5.97;;;;;;;10.15;100.00;100386.94;5077795;28;20467;-58
2023/01/05 09:07:58;;;;;;;13.77;4.20;;;;;;;10.21;100.00;100393.59;5076484;28;20444;-58
2023/01/05 09:10:25;;;;;;;18.93;4.40;;;;;;;10.07;100.00;100389.47;5078232;28;20445;-58
2023/01/05 09:12:54;;;;;;;18.80;4.73;;;;;;;10.11;100.00;100395.38;5076978;28;21015;-58
2023/01/05 09:15:21;;;;;;;13.00;4.67;;;;;;;10.07;100.00;100405.50;5077048;28;20441;-58
2023/01/05 09:17:48;;;;;;;17.20;4.30;;;;;;;10.03;100.00;100409.38;5076942;28;20436;-58
2023/01/05 09:20:14;;;;;;;20.27;4.37;;;;;;;9.97;100.00;100413.44;5076608;28;20451;-58
2023/01/05 09:22:41;;;;;;;23.43;5.30;;;;;;;10.13;100.00;100412.94;5080814;28;20444;-58
2023/01/05 09:25:09;;;;;;;20.23;5.13;;;;;;;10.16;100.00;100414.53;5080683;28;20483;-58
2023/01/05 09:27:36;;;;;;;20.43;4.83;;;;;;;10.13;100.00;100414.78;5082785;28;20448;-60
2023/01/05 09:30:06;;;;;;;17.63;6.03;;;;;;;10.10;100.00;100418.59;5082146;28;20437;-58
2023/01/05 09:32:34;;;;;;;17.83;5.37;;;;;;;10.03;100.00;100413.88;5080241;28;20486;-58
2023/01/05 09:35:00;;;;;;;17.57;5.47;;;;;;;10.12;100.00;100429.09;5081132;28;20474;-58
2023/01/05 09:37:27;;;;;;;11.87;4.80;;;;;;;10.08;100.00;100430.38;5083693;28;20518;-61
2023/01/05 09:39:54;;;;;;;16.00;5.20;;;;;;;10.17;100.00;100437.56;5081693;28;20476;-58
2023/01/05 09:42:23;;;;;;;22.37;4.50;;;;;;;10.21;100.00;100435.47;5080148;28;20549;-58
2023/01/05 09:44:51;;;;;;;20.00;4.67;;;;;;;10.32;100.00;100444.28;5082527;28;20483;-58
2023/01/05 09:47:23;;;;;;;17.33;4.83;;;;;;;10.22;100.00;100450.53;5081474;28;20535;-58
2023/01/05 09:49:51;;;;;;;19.00;5.27;;;;;;;10.28;100.00;100452.69;5081334;28;20742;-58
2023/01/05 09:52:21;;;;;;;25.73;5.07;;;;;;;9.96;100.00;100458.97;5081309;28;20480;-58
2023/01/05 09:54:48;;;;;;;14.40;4.53;;;;;;;9.97;100.00;100464.19;5081397;28;20489;-58
2023/01/05 09:57:18;;;;;;;15.03;4.73;;;;;;;9.94;100.00;100458.25;5091137;28;20463;-58
2023/01/05 09:59:47;;;;;;;20.37;5.23;;;;;;;9.94;100.00;100472.47;5102963;28;20547;-58
2023/01/05 10:02:20;;;;;;;9.90;4.37;;;;;;;10.05;100.00;100465.34;5102112;28;20480;-58
2023/01/05 10:04:47;;;;;;;24.70;5.47;;;;;;;9.93;100.00;100470.78;5103169;28;20491;-58
2023/01/05 10:07:20;;;;;;;18.47;4.40;;;;;;;9.92;100.00;100465.56;5102526;28;20493;-58
2023/01/05 10:09:48;;;;;;;25.27;5.30;;;;;;;10.06;100.00;100477.75;5102150;28;20460;-59
2023/01/05 10:15:08;;;;;;;23.27;5.33;;;;;;;9.85;100.00;100481.25;5102328;28;20423;-58
2023/01/05 10:17:39;;;;;;;17.20;5.67;;;;;;;10.03;100.00;100484.19;5101879;28;20447;-58
2023/01/05 10:20:14;;;;;;;31.43;5.50;;;;;;;9.81;100.00;100471.84;5102027;28;20464;-58
2023/01/05 10:22:47;;;;;;;20.67;5.10;;;;;;;10.11;100.00;100481.69;5102468;28;20448;-58
2023/01/05 10:25:20;;;;;;;17.50;5.47;;;;;;;10.18;100.00;100485.53;5083377;28;20476;-58
2023/01/05 10:27:53;;;;;;;20.03;6.03;;;;;;;10.17;100.00;100483.88;5079543;28;20471;-58
2023/01/05 10:30:24;;;;;;;21.80;5.43;;;;;;;10.36;100.00;100476.94;5080878;28;20456;-58
2023/01/05 10:32:58;;;;;;;15.93;5.80;;;;;;;10.38;100.00;100483.03;5081757;28;20459;-59
2023/01/05 10:35:39;;;;;;;16.10;5.17;;;;;;;10.62;100.00;100493.34;5080272;28;20428;-59
2023/01/05 10:38:11;;;;;;;14.00;5.40;;;;;;;10.72;100.00;100490.72;5080310;28;20456;-58
2023/01/05 10:40:46;;;;;;;20.40;5.73;;;;;;;10.47;100.00;100476.84;5079550;28;21050;-58
2023/01/05 10:43:24;;;;;;;25.40;5.13;;;;;;;10.77;100.00;100485.81;5082128;28;20506;-58
2023/01/05 10:45:51;;;;;;;16.83;4.43;;;;;;;10.83;100.00;100495.13;5079489;28;20581;-58
2023/01/05 10:48:23;;;;;;;12.50;4.50;;;;;;;10.69;100.00;100499.88;5081798;28;20498;-58
2023/01/05 10:50:53;;;;;;;17.40;5.17;;;;;;;10.77;100.00;100501.88;5080515;28;20543;-58
2023/01/05 10:53:23;;;;;;;13.13;4.57;;;;;;;10.72;100.00;100507.63;5079805;28;20467;-59
2023/01/05 10:55:57;;;;;;;19.97;5.13;;;;;;;10.58;100.00;100496.47;5078754;28;20500;-58
2023/01/05 10:58:26;;;;;;;16.10;4.63;;;;;;;10.68;100.00;100500.84;5085290;28;20831;-59
2023/01/05 11:00:56;;;;;;;20.77;8.30;;;;;;;10.78;100.00;100505.38;5060787;28;20481;-59
2023/01/05 11:03:29;;;;;;;16.77;5.57;;;;;;;10.70;100.00;100498.06;5075484;28;20444;-59
2023/01/05 11:05:56;;;;;;;14.50;5.40;;;;;;;10.79;100.00;100509.75;5080535;28;20511;-58
2023/01/05 11:08:27;;;;;;;13.90;5.23;;;;;;;10.74;100.00;100504.81;5080431;28;20452;-59
2023/01/05 11:10:56;;;;;;;13.93;4.87;;;;;;;10.90;100.00;100515.84;5079983;28;20472;-58
2023/01/05 11:13:29;;;;;;;14.83;4.80;;;;;;;10.83;100.00;100509.38;5080113;28;20467;-59
2023/01/05 11:15:57;;;;;;;16.37;3.90;;;;;;;10.79;100.00;100507.09;5076254;28;20475;-59
2023/01/05 11:18:32;;;;;;;17.93;6.00;;;;;;;10.91;100.00;100511.34;5080664;28;20453;-58
2023/01/05 11:21:08;;;;;;;16.13;4.83;;;;;;;11.24;100.00;100502.13;5078557;28;20487;-58
2023/01/05 11:23:36;;;;;;;9.43;3.83;;;;;;;11.59;100.00;100511.44;5079962;28;20452;-58
2023/01/05 11:26:37;;;;;;;22.90;5.33;;;;;;;11.66;100.00;100517.09;5079795;28;20476;-58
2023/01/05 11:29:15;;;;;;;15.47;5.33;;;;;;;11.48;100.00;100514.28;5078651;28;20513;-58
2023/01/05 11:31:46;;;;;;;13.33;3.77;;;;;;;11.38;100.00;100502.69;5078728;28;20571;-59
2023/01/05 11:34:35;;;;;;;10.90;3.57;;;;;;;11.92;100.00;100517.38;5080123;28;20514;-58
2023/01/05 11:37:04;;;;;;;12.10;4.13;;;;;;;11.97;100.00;100515.13;5079363;28;20488;-59
2023/01/05 11:39:33;;;;;;;13.70;3.80;;;;;;;11.79;99.68;100523.00;5079076;28;20518;-58
2023/01/05 11:42:15;;;;;;;7.10;3.20;;;;;;;11.48;100.00;100522.31;5095916;28;20476;-59
2023/01/05 11:44:43;;;;;;;7.30;3.60;;;;;;;11.35;100.00;100519.03;5068825;28;20482;-58
2023/01/05 11:47:19;;;;;;;9.90;3.30;;;;;;;11.29;100.00;100520.44;5079153;28;20555;-58
2023/01/05 11:49:47;;;;;;;13.47;3.20;;;;;;;11.38;100.00;100534.81;5066692;28;20448;-58
2023/01/05 11:52:33;;;;;;;14.93;3.90;;;;;;;11.17;100.00;100533.09;5079214;28;20476;-59
2023/01/05 11:55:00;;;;;;;14.90;4.00;;;;;;;11.22;100.00;100528.19;5080245;28;20516;-59
2023/01/05 11:57:27;;;;;;;17.47;4.87;;;;;;;10.79;100.00;100523.97;5079925;28;20513;-58